POB weather

Public forecast

Using degrees Fahrenheit for public forecast. Weather courtesy of forecast.io.

Current aviation weather report (METAR) for Pope Field

Retrieved 2020/08/09 13:56 UTC (17 minutes ago):

KPOB 091356Z AUTO 00000KT 10SM CLR 27/22 A3015 RMK AO2 SLP211 T02670223

Aviation forecast (TAF) for Pope Field

Retrieved 2020/08/09 09:33 UTC (5 hours ago):

TAF KPOB 090900Z 0909/1015 VRB06KT 9999 SCT040 QNH3008INS TEMPO 0909/0910 24010G15KT 6000 -TSRA BKN030CB BECMG 0919/0920 22012KT 9000 -SHRA VCTS SCT035CB QNH3006INS TEMPO 0921/0924 24015G25KT 6000 -TSRA BKN030CB BECMG 1002/1003 15006KT 9999 NSW SCT040 QNH3009INS TX32/0919Z TN22/0910Z